sensor_id;sensor_type;location;lat;lon;timestamp;temperature;humidity
55634;DHT22;41504;53.162;6.788;2023-09-30T00:01:02;12.40;97.90
55634;DHT22;41504;53.162;6.788;2023-09-30T00:03:28;12.40;98.00
55634;DHT22;41504;53.162;6.788;2023-09-30T00:05:54;12.40;98.10
55634;DHT22;41504;53.162;6.788;2023-09-30T00:08:23;12.40;98.10
55634;DHT22;41504;53.162;6.788;2023-09-30T00:10:49;12.40;98.20
55634;DHT22;41504;53.162;6.788;2023-09-30T00:13:15;12.50;98.20
55634;DHT22;41504;53.162;6.788;2023-09-30T00:15:42;12.40;98.10
55634;DHT22;41504;53.162;6.788;2023-09-30T00:18:07;12.50;98.20
55634;DHT22;41504;53.162;6.788;2023-09-30T00:20:33;12.40;98.10
55634;DHT22;41504;53.162;6.788;2023-09-30T00:22:59;12.40;98.10
55634;DHT22;41504;53.162;6.788;2023-09-30T00:25:24;12.40;98.10
55634;DHT22;41504;53.162;6.788;2023-09-30T00:27:51;12.40;98.20
55634;DHT22;41504;53.162;6.788;2023-09-30T00:30:16;12.30;98.20
55634;DHT22;41504;53.162;6.788;2023-09-30T00:32:42;12.30;98.30
55634;DHT22;41504;53.162;6.788;2023-09-30T00:35:08;12.30;98.30
55634;DHT22;41504;53.162;6.788;2023-09-30T00:37:40;12.40;98.40
55634;DHT22;41504;53.162;6.788;2023-09-30T00:40:07;12.40;98.30
55634;DHT22;41504;53.162;6.788;2023-09-30T00:42:41;12.30;98.30
55634;DHT22;41504;53.162;6.788;2023-09-30T00:45:07;12.40;98.40
55634;DHT22;41504;53.162;6.788;2023-09-30T00:47:35;12.30;98.40
55634;DHT22;41504;53.162;6.788;2023-09-30T00:50:02;12.30;98.50
55634;DHT22;41504;53.162;6.788;2023-09-30T00:52:31;12.30;98.50
55634;DHT22;41504;53.162;6.788;2023-09-30T00:54:57;12.20;98.50
55634;DHT22;41504;53.162;6.788;2023-09-30T00:57:24;12.20;98.60
55634;DHT22;41504;53.162;6.788;2023-09-30T00:59:51;12.20;98.60
55634;DHT22;41504;53.162;6.788;2023-09-30T01:02:18;12.20;98.60
55634;DHT22;41504;53.162;6.788;2023-09-30T01:04:44;12.10;98.60
55634;DHT22;41504;53.162;6.788;2023-09-30T01:07:10;12.10;98.60
55634;DHT22;41504;53.162;6.788;2023-09-30T01:09:37;12.10;98.60
55634;DHT22;41504;53.162;6.788;2023-09-30T01:12:03;12.10;98.70
55634;DHT22;41504;53.162;6.788;2023-09-30T01:14:34;12.10;98.70
55634;DHT22;41504;53.162;6.788;2023-09-30T01:17:01;12.10;98.80
55634;DHT22;41504;53.162;6.788;2023-09-30T01:19:27;12.00;98.80
55634;DHT22;41504;53.162;6.788;2023-09-30T01:21:56;12.00;98.90
55634;DHT22;41504;53.162;6.788;2023-09-30T01:24:29;12.10;99.00
55634;DHT22;41504;53.162;6.788;2023-09-30T01:26:56;12.10;99.00
55634;DHT22;41504;53.162;6.788;2023-09-30T01:29:22;12.10;99.00
55634;DHT22;41504;53.162;6.788;2023-09-30T01:31:50;12.20;99.00
55634;DHT22;41504;53.162;6.788;2023-09-30T01:34:16;12.20;99.00
55634;DHT22;41504;53.162;6.788;2023-09-30T01:36:43;12.20;98.90
55634;DHT22;41504;53.162;6.788;2023-09-30T01:39:10;12.20;98.90
55634;DHT22;41504;53.162;6.788;2023-09-30T01:41:39;12.20;99.00
55634;DHT22;41504;53.162;6.788;2023-09-30T01:44:06;12.30;99.00
55634;DHT22;41504;53.162;6.788;2023-09-30T01:46:32;12.30;99.00
55634;DHT22;41504;53.162;6.788;2023-09-30T01:48:58;12.30;99.00
55634;DHT22;41504;53.162;6.788;2023-09-30T01:51:23;12.30;99.10
55634;DHT22;41504;53.162;6.788;2023-09-30T01:53:49;12.30;99.10
55634;DHT22;41504;53.162;6.788;2023-09-30T01:56:15;12.40;99.10
55634;DHT22;41504;53.162;6.788;2023-09-30T01:58:44;12.40;99.10
55634;DHT22;41504;53.162;6.788;2023-09-30T02:01:10;12.40;99.10
55634;DHT22;41504;53.162;6.788;2023-09-30T02:03:38;12.40;99.00
55634;DHT22;41504;53.162;6.788;2023-09-30T02:06:04;12.40;99.00
55634;DHT22;41504;53.162;6.788;2023-09-30T02:08:30;12.40;99.00
55634;DHT22;41504;53.162;6.788;2023-09-30T02:10:56;12.40;99.10
55634;DHT22;41504;53.162;6.788;2023-09-30T02:13:22;12.40;99.10
55634;DHT22;41504;53.162;6.788;2023-09-30T02:15:47;12.40;99.10
55634;DHT22;41504;53.162;6.788;2023-09-30T02:18:13;12.40;99.10
55634;DHT22;41504;53.162;6.788;2023-09-30T02:20:40;12.40;99.10
55634;DHT22;41504;53.162;6.788;2023-09-30T02:23:07;12.40;99.10
55634;DHT22;41504;53.162;6.788;2023-09-30T02:25:33;12.40;99.10
55634;DHT22;41504;53.162;6.788;2023-09-30T02:27:59;12.40;99.10
55634;DHT22;41504;53.162;6.788;2023-09-30T02:30:26;12.40;99.10
55634;DHT22;41504;53.162;6.788;2023-09-30T02:32:53;12.40;99.10
55634;DHT22;41504;53.162;6.788;2023-09-30T02:35:19;12.40;99.00
55634;DHT22;41504;53.162;6.788;2023-09-30T02:37:46;12.40;99.10
55634;DHT22;41504;53.162;6.788;2023-09-30T02:40:11;12.40;99.10
55634;DHT22;41504;53.162;6.788;2023-09-30T02:42:41;12.40;99.10
55634;DHT22;41504;53.162;6.788;2023-09-30T02:45:07;12.40;99.00
55634;DHT22;41504;53.162;6.788;2023-09-30T02:47:38;12.40;99.00
55634;DHT22;41504;53.162;6.788;2023-09-30T02:50:08;12.40;99.10
55634;DHT22;41504;53.162;6.788;2023-09-30T02:52:37;12.30;99.10
55634;DHT22;41504;53.162;6.788;2023-09-30T02:55:04;12.30;99.00
55634;DHT22;41504;53.162;6.788;2023-09-30T02:57:33;12.30;99.10
55634;DHT22;41504;53.162;6.788;2023-09-30T03:00:10;12.30;99.10
55634;DHT22;41504;53.162;6.788;2023-09-30T03:03:01;12.30;99.10
55634;DHT22;41504;53.162;6.788;2023-09-30T03:05:27;12.20;99.10
55634;DHT22;41504;53.162;6.788;2023-09-30T03:07:53;12.20;99.20
55634;DHT22;41504;53.162;6.788;2023-09-30T03:10:21;12.20;99.20
55634;DHT22;41504;53.162;6.788;2023-09-30T03:12:58;12.20;99.20
55634;DHT22;41504;53.162;6.788;2023-09-30T03:15:30;12.20;99.20
55634;DHT22;41504;53.162;6.788;2023-09-30T03:17:59;12.20;99.20
55634;DHT22;41504;53.162;6.788;2023-09-30T03:20:29;12.20;99.20
55634;DHT22;41504;53.162;6.788;2023-09-30T03:22:59;12.20;99.40
55634;DHT22;41504;53.162;6.788;2023-09-30T03:25:25;12.20;99.30
55634;DHT22;41504;53.162;6.788;2023-09-30T03:27:54;12.10;99.30
55634;DHT22;41504;53.162;6.788;2023-09-30T03:30:20;12.10;99.30
55634;DHT22;41504;53.162;6.788;2023-09-30T03:32:45;12.10;99.40
55634;DHT22;41504;53.162;6.788;2023-09-30T03:35:11;12.10;99.40
55634;DHT22;41504;53.162;6.788;2023-09-30T03:37:43;12.00;99.40
55634;DHT22;41504;53.162;6.788;2023-09-30T03:40:09;12.10;99.50
55634;DHT22;41504;53.162;6.788;2023-09-30T03:42:40;12.00;99.50
55634;DHT22;41504;53.162;6.788;2023-09-30T03:45:08;12.10;99.50
55634;DHT22;41504;53.162;6.788;2023-09-30T03:47:39;12.10;99.50
55634;DHT22;41504;53.162;6.788;2023-09-30T03:50:08;12.10;99.50
55634;DHT22;41504;53.162;6.788;2023-09-30T03:52:41;12.10;99.50
55634;DHT22;41504;53.162;6.788;2023-09-30T03:55:11;12.10;99.50
55634;DHT22;41504;53.162;6.788;2023-09-30T03:57:38;12.10;99.50
55634;DHT22;41504;53.162;6.788;2023-09-30T04:00:04;12.10;99.50
55634;DHT22;41504;53.162;6.788;2023-09-30T04:02:33;12.10;99.50
55634;DHT22;41504;53.162;6.788;2023-09-30T04:04:59;12.10;99.60
55634;DHT22;41504;53.162;6.788;2023-09-30T04:07:25;11.90;99.50
55634;DHT22;41504;53.162;6.788;2023-09-30T04:09:54;12.10;99.60
55634;DHT22;41504;53.162;6.788;2023-09-30T04:12:20;12.00;99.70
55634;DHT22;41504;53.162;6.788;2023-09-30T04:14:46;12.00;99.70
55634;DHT22;41504;53.162;6.788;2023-09-30T04:17:11;12.00;99.70
55634;DHT22;41504;53.162;6.788;2023-09-30T04:19:37;11.90;99.70
55634;DHT22;41504;53.162;6.788;2023-09-30T04:22:06;11.90;99.80
55634;DHT22;41504;53.162;6.788;2023-09-30T04:24:31;11.90;99.90
55634;DHT22;41504;53.162;6.788;2023-09-30T04:26:57;11.90;99.90
55634;DHT22;41504;53.162;6.788;2023-09-30T04:29:28;11.90;99.90
55634;DHT22;41504;53.162;6.788;2023-09-30T04:31:58;11.90;99.90
55634;DHT22;41504;53.162;6.788;2023-09-30T04:34:24;11.90;99.90
55634;DHT22;41504;53.162;6.788;2023-09-30T04:36:49;11.90;99.90
55634;DHT22;41504;53.162;6.788;2023-09-30T04:39:15;11.90;99.90
55634;DHT22;41504;53.162;6.788;2023-09-30T04:41:41;11.90;99.90
55634;DHT22;41504;53.162;6.788;2023-09-30T04:44:07;11.90;99.90
55634;DHT22;41504;53.162;6.788;2023-09-30T04:46:37;11.90;99.90
55634;DHT22;41504;53.162;6.788;2023-09-30T04:49:09;11.90;99.90
55634;DHT22;41504;53.162;6.788;2023-09-30T04:51:38;11.90;99.90
55634;DHT22;41504;53.162;6.788;2023-09-30T04:54:07;11.90;99.90
55634;DHT22;41504;53.162;6.788;2023-09-30T04:56:34;11.90;99.90
55634;DHT22;41504;53.162;6.788;2023-09-30T04:59:01;11.80;99.90
55634;DHT22;41504;53.162;6.788;2023-09-30T05:01:31;11.80;99.90
55634;DHT22;41504;53.162;6.788;2023-09-30T05:03:56;11.80;99.90
55634;DHT22;41504;53.162;6.788;2023-09-30T05:06:22;11.80;99.90
55634;DHT22;41504;53.162;6.788;2023-09-30T05:08:48;11.80;99.90
55634;DHT22;41504;53.162;6.788;2023-09-30T05:11:14;11.70;99.90
55634;DHT22;41504;53.162;6.788;2023-09-30T05:13:40;11.80;99.90
55634;DHT22;41504;53.162;6.788;2023-09-30T05:16:06;11.80;99.90
55634;DHT22;41504;53.162;6.788;2023-09-30T05:18:33;11.80;99.90
55634;DHT22;41504;53.162;6.788;2023-09-30T05:20:59;11.80;99.90
55634;DHT22;41504;53.162;6.788;2023-09-30T05:23:24;11.70;99.90
55634;DHT22;41504;53.162;6.788;2023-09-30T05:25:53;11.70;99.90
55634;DHT22;41504;53.162;6.788;2023-09-30T05:28:22;11.70;99.90
55634;DHT22;41504;53.162;6.788;2023-09-30T05:30:48;11.70;99.90
55634;DHT22;41504;53.162;6.788;2023-09-30T05:33:13;11.70;99.90
55634;DHT22;41504;53.162;6.788;2023-09-30T05:35:41;11.70;99.90
55634;DHT22;41504;53.162;6.788;2023-09-30T05:38:10;11.70;99.90
55634;DHT22;41504;53.162;6.788;2023-09-30T05:40:38;11.70;99.90
55634;DHT22;41504;53.162;6.788;2023-09-30T05:43:04;11.70;99.90
55634;DHT22;41504;53.162;6.788;2023-09-30T05:45:32;11.70;99.90
55634;DHT22;41504;53.162;6.788;2023-09-30T05:48:06;11.70;99.90
55634;DHT22;41504;53.162;6.788;2023-09-30T05:50:33;11.70;99.90
55634;DHT22;41504;53.162;6.788;2023-09-30T05:53:00;11.70;99.90
55634;DHT22;41504;53.162;6.788;2023-09-30T05:55:25;11.70;99.90
55634;DHT22;41504;53.162;6.788;2023-09-30T05:57:51;11.70;99.90
55634;DHT22;41504;53.162;6.788;2023-09-30T06:00:20;11.70;99.90
55634;DHT22;41504;53.162;6.788;2023-09-30T06:02:49;11.70;99.90
55634;DHT22;41504;53.162;6.788;2023-09-30T06:05:17;11.60;99.90
55634;DHT22;41504;53.162;6.788;2023-09-30T06:07:48;11.60;99.90
55634;DHT22;41504;53.162;6.788;2023-09-30T06:10:14;11.60;99.90
55634;DHT22;41504;53.162;6.788;2023-09-30T06:12:45;11.60;99.90
55634;DHT22;41504;53.162;6.788;2023-09-30T06:15:12;11.60;99.90
55634;DHT22;41504;53.162;6.788;2023-09-30T06:17:39;11.60;99.90
55634;DHT22;41504;53.162;6.788;2023-09-30T06:20:07;11.60;99.90
55634;DHT22;41504;53.162;6.788;2023-09-30T06:22:38;11.60;99.90
55634;DHT22;41504;53.162;6.788;2023-09-30T06:25:04;11.60;99.90
55634;DHT22;41504;53.162;6.788;2023-09-30T06:27:30;11.70;99.90
55634;DHT22;41504;53.162;6.788;2023-09-30T06:29:58;11.70;99.90
55634;DHT22;41504;53.162;6.788;2023-09-30T06:32:24;11.70;99.90
55634;DHT22;41504;53.162;6.788;2023-09-30T06:34:50;11.70;99.90
55634;DHT22;41504;53.162;6.788;2023-09-30T06:37:15;11.80;99.90
55634;DHT22;41504;53.162;6.788;2023-09-30T06:39:41;11.80;99.90
55634;DHT22;41504;53.162;6.788;2023-09-30T06:42:07;11.80;99.90
55634;DHT22;41504;53.162;6.788;2023-09-30T06:44:32;11.80;99.90
55634;DHT22;41504;53.162;6.788;2023-09-30T06:46:58;11.80;99.90
55634;DHT22;41504;53.162;6.788;2023-09-30T06:49:24;11.90;99.90
55634;DHT22;41504;53.162;6.788;2023-09-30T06:51:49;11.90;99.90
55634;DHT22;41504;53.162;6.788;2023-09-30T06:54:15;11.90;99.90
55634;DHT22;41504;53.162;6.788;2023-09-30T06:56:41;12.00;99.90
55634;DHT22;41504;53.162;6.788;2023-09-30T06:59:06;12.00;99.90
55634;DHT22;41504;53.162;6.788;2023-09-30T07:01:32;12.10;99.90
55634;DHT22;41504;53.162;6.788;2023-09-30T07:03:58;12.10;99.90
55634;DHT22;41504;53.162;6.788;2023-09-30T07:06:26;12.20;99.90
55634;DHT22;41504;53.162;6.788;2023-09-30T07:08:52;12.20;99.90
55634;DHT22;41504;53.162;6.788;2023-09-30T07:11:31;12.30;99.90
55634;DHT22;41504;53.162;6.788;2023-09-30T07:13:58;12.30;99.90
55634;DHT22;41504;53.162;6.788;2023-09-30T07:16:24;12.40;99.90
55634;DHT22;41504;53.162;6.788;2023-09-30T07:18:50;12.40;99.90
55634;DHT22;41504;53.162;6.788;2023-09-30T07:21:16;12.50;99.90
55634;DHT22;41504;53.162;6.788;2023-09-30T07:23:42;12.50;99.90
55634;DHT22;41504;53.162;6.788;2023-09-30T07:26:08;12.60;99.90
55634;DHT22;41504;53.162;6.788;2023-09-30T07:28:34;12.70;99.90
55634;DHT22;41504;53.162;6.788;2023-09-30T07:31:00;12.70;99.90
55634;DHT22;41504;53.162;6.788;2023-09-30T07:33:25;12.80;99.90
55634;DHT22;41504;53.162;6.788;2023-09-30T07:35:51;12.90;99.90
55634;DHT22;41504;53.162;6.788;2023-09-30T07:38:17;12.90;99.90
55634;DHT22;41504;53.162;6.788;2023-09-30T07:40:43;13.00;99.90
55634;DHT22;41504;53.162;6.788;2023-09-30T07:43:09;13.00;99.90
55634;DHT22;41504;53.162;6.788;2023-09-30T07:45:38;13.10;99.90
55634;DHT22;41504;53.162;6.788;2023-09-30T07:48:04;13.20;99.90
55634;DHT22;41504;53.162;6.788;2023-09-30T07:50:32;13.20;99.90
55634;DHT22;41504;53.162;6.788;2023-09-30T07:52:59;13.20;99.90
55634;DHT22;41504;53.162;6.788;2023-09-30T07:55:26;13.30;99.90
55634;DHT22;41504;53.162;6.788;2023-09-30T07:57:52;13.40;99.90
55634;DHT22;41504;53.162;6.788;2023-09-30T08:00:18;13.40;99.90
55634;DHT22;41504;53.162;6.788;2023-09-30T08:02:46;13.50;99.90
55634;DHT22;41504;53.162;6.788;2023-09-30T08:05:13;13.60;99.90
55634;DHT22;41504;53.162;6.788;2023-09-30T08:07:38;13.60;99.80
55634;DHT22;41504;53.162;6.788;2023-09-30T08:10:06;13.70;99.80
55634;DHT22;41504;53.162;6.788;2023-09-30T08:12:37;13.80;99.70
55634;DHT22;41504;53.162;6.788;2023-09-30T08:15:03;13.80;99.60
55634;DHT22;41504;53.162;6.788;2023-09-30T08:17:31;13.90;99.60
55634;DHT22;41504;53.162;6.788;2023-09-30T08:20:00;14.00;99.60
55634;DHT22;41504;53.162;6.788;2023-09-30T08:22:25;14.00;99.60
55634;DHT22;41504;53.162;6.788;2023-09-30T08:24:54;14.10;99.50
55634;DHT22;41504;53.162;6.788;2023-09-30T08:27:19;14.20;99.40
55634;DHT22;41504;53.162;6.788;2023-09-30T08:29:46;14.20;99.40
55634;DHT22;41504;53.162;6.788;2023-09-30T08:32:11;14.30;99.40
55634;DHT22;41504;53.162;6.788;2023-09-30T08:34:37;14.40;99.40
55634;DHT22;41504;53.162;6.788;2023-09-30T08:37:03;14.40;99.30
55634;DHT22;41504;53.162;6.788;2023-09-30T08:39:29;14.50;99.50
55634;DHT22;41504;53.162;6.788;2023-09-30T08:41:55;14.60;99.20
55634;DHT22;41504;53.162;6.788;2023-09-30T08:44:22;14.60;99.10
55634;DHT22;41504;53.162;6.788;2023-09-30T08:46:49;14.70;99.10
55634;DHT22;41504;53.162;6.788;2023-09-30T08:49:15;14.70;99.10
55634;DHT22;41504;53.162;6.788;2023-09-30T08:51:43;14.80;99.00
55634;DHT22;41504;53.162;6.788;2023-09-30T08:54:09;14.80;98.90
55634;DHT22;41504;53.162;6.788;2023-09-30T08:56:34;14.90;98.90
55634;DHT22;41504;53.162;6.788;2023-09-30T08:59:02;15.00;98.80
55634;DHT22;41504;53.162;6.788;2023-09-30T09:01:29;15.10;98.60
55634;DHT22;41504;53.162;6.788;2023-09-30T09:03:56;15.10;98.40
55634;DHT22;41504;53.162;6.788;2023-09-30T09:06:23;15.20;98.30
55634;DHT22;41504;53.162;6.788;2023-09-30T09:08:49;15.30;98.10
55634;DHT22;41504;53.162;6.788;2023-09-30T09:11:15;15.30;98.00
55634;DHT22;41504;53.162;6.788;2023-09-30T09:13:50;15.40;98.00
55634;DHT22;41504;53.162;6.788;2023-09-30T09:16:17;15.50;97.90
55634;DHT22;41504;53.162;6.788;2023-09-30T09:18:44;15.60;97.60
55634;DHT22;41504;53.162;6.788;2023-09-30T09:21:17;15.70;97.50
55634;DHT22;41504;53.162;6.788;2023-09-30T09:23:47;15.70;97.30
55634;DHT22;41504;53.162;6.788;2023-09-30T09:26:33;15.80;97.10
55634;DHT22;41504;53.162;6.788;2023-09-30T09:29:02;15.80;96.90
55634;DHT22;41504;53.162;6.788;2023-09-30T09:31:33;15.80;96.80
55634;DHT22;41504;53.162;6.788;2023-09-30T09:34:00;15.90;96.70
55634;DHT22;41504;53.162;6.788;2023-09-30T09:36:43;15.90;96.60
55634;DHT22;41504;53.162;6.788;2023-09-30T09:39:10;16.00;96.40
55634;DHT22;41504;53.162;6.788;2023-09-30T09:41:59;16.10;96.10
55634;DHT22;41504;53.162;6.788;2023-09-30T09:44:27;16.10;95.80
55634;DHT22;41504;53.162;6.788;2023-09-30T09:46:52;16.20;96.20
55634;DHT22;41504;53.162;6.788;2023-09-30T09:49:19;16.20;96.20
55634;DHT22;41504;53.162;6.788;2023-09-30T09:51:48;16.30;96.00
55634;DHT22;41504;53.162;6.788;2023-09-30T09:54:15;16.30;95.80
55634;DHT22;41504;53.162;6.788;2023-09-30T09:56:44;16.40;95.80
55634;DHT22;41504;53.162;6.788;2023-09-30T09:59:12;16.40;95.70
55634;DHT22;41504;53.162;6.788;2023-09-30T10:01:41;16.50;95.50
55634;DHT22;41504;53.162;6.788;2023-09-30T10:04:10;16.60;95.20
55634;DHT22;41504;53.162;6.788;2023-09-30T10:06:36;16.60;95.00
55634;DHT22;41504;53.162;6.788;2023-09-30T10:09:10;16.70;94.50
55634;DHT22;41504;53.162;6.788;2023-09-30T10:11:38;16.80;93.90
55634;DHT22;41504;53.162;6.788;2023-09-30T10:14:04;16.80;94.00
55634;DHT22;41504;53.162;6.788;2023-09-30T10:19:20;16.90;93.80
55634;DHT22;41504;53.162;6.788;2023-09-30T10:24:43;16.90;94.00
55634;DHT22;41504;53.162;6.788;2023-09-30T10:29:47;17.00;93.80
55634;DHT22;41504;53.162;6.788;2023-09-30T10:32:13;17.00;93.60
55634;DHT22;41504;53.162;6.788;2023-09-30T10:34:49;17.10;93.20
55634;DHT22;41504;53.162;6.788;2023-09-30T10:37:21;17.10;92.60
55634;DHT22;41504;53.162;6.788;2023-09-30T10:39:58;17.00;92.90
55634;DHT22;41504;53.162;6.788;2023-09-30T10:42:49;17.00;92.60
55634;DHT22;41504;53.162;6.788;2023-09-30T10:45:46;17.00;92.90
55634;DHT22;41504;53.162;6.788;2023-09-30T10:51:16;17.10;92.70
55634;DHT22;41504;53.162;6.788;2023-09-30T10:53:47;17.20;92.20
55634;DHT22;41504;53.162;6.788;2023-09-30T10:56:13;17.30;91.90
55634;DHT22;41504;53.162;6.788;2023-09-30T10:58:50;17.50;92.20
55634;DHT22;41504;53.162;6.788;2023-09-30T11:01:18;17.60;92.00
55634;DHT22;41504;53.162;6.788;2023-09-30T11:03:46;17.80;91.50
55634;DHT22;41504;53.162;6.788;2023-09-30T11:06:13;17.80;91.20
55634;DHT22;41504;53.162;6.788;2023-09-30T11:08:52;17.80;91.10
55634;DHT22;41504;53.162;6.788;2023-09-30T11:11:19;17.80;90.80
55634;DHT22;41504;53.162;6.788;2023-09-30T11:13:45;17.70;90.80
55634;DHT22;41504;53.162;6.788;2023-09-30T11:16:11;17.80;89.20
55634;DHT22;41504;53.162;6.788;2023-09-30T11:18:36;17.90;89.20
55634;DHT22;41504;53.162;6.788;2023-09-30T11:21:11;18.00;88.60
55634;DHT22;41504;53.162;6.788;2023-09-30T11:23:39;18.20;88.90
55634;DHT22;41504;53.162;6.788;2023-09-30T11:26:06;18.20;87.80
55634;DHT22;41504;53.162;6.788;2023-09-30T11:28:40;18.20;88.10
55634;DHT22;41504;53.162;6.788;2023-09-30T11:31:11;18.20;88.40
55634;DHT22;41504;53.162;6.788;2023-09-30T11:33:48;18.10;87.30
55634;DHT22;41504;53.162;6.788;2023-09-30T11:36:15;18.00;88.40
55634;DHT22;41504;53.162;6.788;2023-09-30T11:38:45;17.90;88.00
55634;DHT22;41504;53.162;6.788;2023-09-30T11:41:12;17.80;87.90
55634;DHT22;41504;53.162;6.788;2023-09-30T11:43:38;17.90;87.70
55634;DHT22;41504;53.162;6.788;2023-09-30T11:46:11;18.00;87.30
55634;DHT22;41504;53.162;6.788;2023-09-30T11:49:02;18.10;86.20
55634;DHT22;41504;53.162;6.788;2023-09-30T11:51:27;18.20;85.60
55634;DHT22;41504;53.162;6.788;2023-09-30T11:53:54;18.30;85.90
55634;DHT22;41504;53.162;6.788;2023-09-30T11:56:21;18.40;85.50
55634;DHT22;41504;53.162;6.788;2023-09-30T11:58:53;18.50;84.90
55634;DHT22;41504;53.162;6.788;2023-09-30T12:01:19;18.60;84.50
55634;DHT22;41504;53.162;6.788;2023-09-30T12:03:50;18.60;85.00
55634;DHT22;41504;53.162;6.788;2023-09-30T12:06:17;18.50;84.50
55634;DHT22;41504;53.162;6.788;2023-09-30T12:08:43;18.40;84.50
55634;DHT22;41504;53.162;6.788;2023-09-30T12:11:10;18.40;85.20
55634;DHT22;41504;53.162;6.788;2023-09-30T12:13:39;18.20;85.80
55634;DHT22;41504;53.162;6.788;2023-09-30T12:16:08;18.10;85.90
55634;DHT22;41504;53.162;6.788;2023-09-30T12:18:35;18.00;86.30
55634;DHT22;41504;53.162;6.788;2023-09-30T12:21:03;17.90;87.00
55634;DHT22;41504;53.162;6.788;2023-09-30T12:23:32;17.90;87.50
55634;DHT22;41504;53.162;6.788;2023-09-30T12:25:57;17.80;88.00
55634;DHT22;41504;53.162;6.788;2023-09-30T12:28:23;17.70;87.20
55634;DHT22;41504;53.162;6.788;2023-09-30T12:30:49;17.60;85.30
55634;DHT22;41504;53.162;6.788;2023-09-30T12:33:14;17.60;85.50
55634;DHT22;41504;53.162;6.788;2023-09-30T12:35:40;17.50;85.80
55634;DHT22;41504;53.162;6.788;2023-09-30T12:38:06;17.40;85.90
55634;DHT22;41504;53.162;6.788;2023-09-30T12:40:32;17.40;86.00
55634;DHT22;41504;53.162;6.788;2023-09-30T12:42:59;17.30;86.30
55634;DHT22;41504;53.162;6.788;2023-09-30T12:45:25;17.30;86.10
55634;DHT22;41504;53.162;6.788;2023-09-30T12:47:50;17.50;86.50
55634;DHT22;41504;53.162;6.788;2023-09-30T12:50:18;17.30;87.00
55634;DHT22;41504;53.162;6.788;2023-09-30T12:52:43;17.30;87.10
55634;DHT22;41504;53.162;6.788;2023-09-30T12:55:10;17.40;86.00
55634;DHT22;41504;53.162;6.788;2023-09-30T12:57:36;17.40;86.00
55634;DHT22;41504;53.162;6.788;2023-09-30T13:00:02;17.40;86.00
55634;DHT22;41504;53.162;6.788;2023-09-30T13:02:29;17.50;85.80
55634;DHT22;41504;53.162;6.788;2023-09-30T13:04:54;17.60;85.50
55634;DHT22;41504;53.162;6.788;2023-09-30T13:07:20;17.60;85.30
55634;DHT22;41504;53.162;6.788;2023-09-30T13:09:46;17.70;85.20
55634;DHT22;41504;53.162;6.788;2023-09-30T13:12:12;17.70;84.90
55634;DHT22;41504;53.162;6.788;2023-09-30T13:14:39;17.80;84.60
55634;DHT22;41504;53.162;6.788;2023-09-30T13:17:05;17.90;84.70
55634;DHT22;41504;53.162;6.788;2023-09-30T13:19:33;18.00;84.00
55634;DHT22;41504;53.162;6.788;2023-09-30T13:21:59;18.00;82.00
55634;DHT22;41504;53.162;6.788;2023-09-30T13:24:24;18.10;80.80
55634;DHT22;41504;53.162;6.788;2023-09-30T13:26:52;18.20;80.60
55634;DHT22;41504;53.162;6.788;2023-09-30T13:29:18;18.30;80.10
55634;DHT22;41504;53.162;6.788;2023-09-30T13:31:44;18.40;79.20
55634;DHT22;41504;53.162;6.788;2023-09-30T13:34:10;18.50;79.40
55634;DHT22;41504;53.162;6.788;2023-09-30T13:36:38;18.60;78.30
55634;DHT22;41504;53.162;6.788;2023-09-30T13:39:04;18.60;78.80
55634;DHT22;41504;53.162;6.788;2023-09-30T13:41:35;18.70;78.90
55634;DHT22;41504;53.162;6.788;2023-09-30T13:44:01;18.80;78.00
55634;DHT22;41504;53.162;6.788;2023-09-30T13:46:27;18.80;77.80
55634;DHT22;41504;53.162;6.788;2023-09-30T13:48:54;18.80;75.90
55634;DHT22;41504;53.162;6.788;2023-09-30T13:51:20;18.80;76.50
55634;DHT22;41504;53.162;6.788;2023-09-30T13:53:46;18.80;75.80
55634;DHT22;41504;53.162;6.788;2023-09-30T13:56:11;18.80;74.20
55634;DHT22;41504;53.162;6.788;2023-09-30T13:58:37;18.80;74.50
55634;DHT22;41504;53.162;6.788;2023-09-30T14:01:03;18.80;73.10
55634;DHT22;41504;53.162;6.788;2023-09-30T14:03:29;18.90;73.20
55634;DHT22;41504;53.162;6.788;2023-09-30T14:05:55;18.90;73.10
55634;DHT22;41504;53.162;6.788;2023-09-30T14:08:23;18.90;73.20
55634;DHT22;41504;53.162;6.788;2023-09-30T14:10:49;19.00;72.10
55634;DHT22;41504;53.162;6.788;2023-09-30T14:13:17;18.90;72.10
55634;DHT22;41504;53.162;6.788;2023-09-30T14:15:44;18.90;72.10
55634;DHT22;41504;53.162;6.788;2023-09-30T14:18:09;18.90;72.60
55634;DHT22;41504;53.162;6.788;2023-09-30T14:20:38;18.90;73.20
55634;DHT22;41504;53.162;6.788;2023-09-30T14:23:04;19.00;73.20
55634;DHT22;41504;53.162;6.788;2023-09-30T14:25:30;19.00;73.00
55634;DHT22;41504;53.162;6.788;2023-09-30T14:27:56;19.00;73.50
55634;DHT22;41504;53.162;6.788;2023-09-30T14:30:25;19.00;73.40
55634;DHT22;41504;53.162;6.788;2023-09-30T14:32:51;19.00;72.50
55634;DHT22;41504;53.162;6.788;2023-09-30T14:35:17;18.90;73.50
55634;DHT22;41504;53.162;6.788;2023-09-30T14:37:43;18.90;71.70
55634;DHT22;41504;53.162;6.788;2023-09-30T14:40:09;18.80;71.90
55634;DHT22;41504;53.162;6.788;2023-09-30T14:42:39;18.80;71.80
55634;DHT22;41504;53.162;6.788;2023-09-30T14:45:05;18.80;72.00
55634;DHT22;41504;53.162;6.788;2023-09-30T14:47:31;18.70;72.00
55634;DHT22;41504;53.162;6.788;2023-09-30T14:49:57;18.70;72.60
55634;DHT22;41504;53.162;6.788;2023-09-30T14:52:23;18.70;72.20
55634;DHT22;41504;53.162;6.788;2023-09-30T14:54:48;18.70;72.20
55634;DHT22;41504;53.162;6.788;2023-09-30T14:57:14;18.70;72.80
55634;DHT22;41504;53.162;6.788;2023-09-30T14:59:41;18.70;72.90
55634;DHT22;41504;53.162;6.788;2023-09-30T15:02:07;18.60;73.30
55634;DHT22;41504;53.162;6.788;2023-09-30T15:04:36;18.60;73.10
55634;DHT22;41504;53.162;6.788;2023-09-30T15:07:02;18.60;72.60
55634;DHT22;41504;53.162;6.788;2023-09-30T15:09:28;18.60;72.00
55634;DHT22;41504;53.162;6.788;2023-09-30T15:11:54;18.50;72.70
55634;DHT22;41504;53.162;6.788;2023-09-30T15:14:20;18.40;73.10
55634;DHT22;41504;53.162;6.788;2023-09-30T15:16:46;18.50;72.90
55634;DHT22;41504;53.162;6.788;2023-09-30T15:19:12;18.40;72.40
55634;DHT22;41504;53.162;6.788;2023-09-30T15:21:37;18.30;72.40
55634;DHT22;41504;53.162;6.788;2023-09-30T15:24:04;18.30;73.30
55634;DHT22;41504;53.162;6.788;2023-09-30T15:26:30;18.30;73.60
55634;DHT22;41504;53.162;6.788;2023-09-30T15:28:57;18.30;74.20
55634;DHT22;41504;53.162;6.788;2023-09-30T15:31:29;18.20;73.90
55634;DHT22;41504;53.162;6.788;2023-09-30T15:33:58;18.20;74.10
55634;DHT22;41504;53.162;6.788;2023-09-30T15:36:24;18.20;74.40
55634;DHT22;41504;53.162;6.788;2023-09-30T15:38:53;18.20;74.90
55634;DHT22;41504;53.162;6.788;2023-09-30T15:41:25;18.10;75.30
55634;DHT22;41504;53.162;6.788;2023-09-30T15:43:51;18.10;75.40